createdAt,value
2018-09-24T00:01:07.444Z,98.20
2018-09-24T00:03:36.431Z,98.00
2018-09-24T00:06:05.410Z,97.30
2018-09-24T00:08:34.374Z,96.70
2018-09-24T00:11:03.393Z,97.20
2018-09-24T00:13:32.403Z,97.40
2018-09-24T00:16:01.400Z,95.70
2018-09-24T00:18:30.305Z,97.80
2018-09-24T00:20:59.223Z,97.80
2018-09-24T00:23:28.162Z,97.70
2018-09-24T00:25:57.212Z,96.30
2018-09-24T00:28:26.251Z,97.50
2018-09-24T00:30:55.280Z,97.70
2018-09-24T00:33:24.332Z,97.40
2018-09-24T00:35:53.392Z,97.60
2018-09-24T00:38:22.410Z,96.00
2018-09-24T00:40:51.333Z,96.90
2018-09-24T00:43:20.410Z,95.40
2018-09-24T00:45:49.462Z,96.00
2018-09-24T00:48:18.442Z,96.20
2018-09-24T00:50:47.345Z,96.70
2018-09-24T00:53:16.413Z,96.80
2018-09-24T00:55:45.403Z,97.00
2018-09-24T00:58:14.430Z,96.50
2018-09-24T01:00:43.425Z,96.80
2018-09-24T01:03:12.470Z,97.30
2018-09-24T01:05:41.465Z,97.70
2018-09-24T01:08:10.497Z,97.60
2018-09-24T01:10:39.450Z,97.70
2018-09-24T01:13:08.425Z,97.20
2018-09-24T01:15:37.355Z,97.10
2018-09-24T01:18:06.411Z,97.30
2018-09-24T01:20:35.411Z,97.40
2018-09-24T01:23:04.378Z,96.70
2018-09-24T01:25:33.370Z,96.30
2018-09-24T01:28:03.544Z,96.20
2018-09-24T01:30:32.593Z,96.10
2018-09-24T01:33:01.531Z,95.50
2018-09-24T01:35:30.545Z,96.20
2018-09-24T01:37:59.489Z,95.60
2018-09-24T01:40:28.505Z,96.30
2018-09-24T01:42:57.454Z,96.40
2018-09-24T01:45:26.536Z,96.90
2018-09-24T01:47:55.530Z,96.50
2018-09-24T01:50:24.566Z,96.70
2018-09-24T01:52:53.866Z,96.90
2018-09-24T01:55:22.890Z,97.30
2018-09-24T01:57:51.797Z,97.00
2018-09-24T02:00:20.746Z,97.10
2018-09-24T02:02:49.648Z,97.40
2018-09-24T02:05:18.590Z,97.90
2018-09-24T02:07:47.531Z,97.30
2018-09-24T02:10:24.150Z,96.80
2018-09-24T02:12:55.655Z,97.70
2018-09-24T02:15:32.993Z,98.00
2018-09-24T02:18:02.063Z,97.80
2018-09-24T02:20:31.002Z,97.80
2018-09-24T02:23:00.055Z,97.70
2018-09-24T02:25:29.010Z,97.20
2018-09-24T02:27:58.094Z,97.60
2018-09-24T02:30:27.110Z,97.70
2018-09-24T02:32:56.038Z,97.50
2018-09-24T02:35:25.150Z,97.80
2018-09-24T02:37:54.131Z,97.70
2018-09-24T02:40:24.219Z,97.80
2018-09-24T02:42:53.230Z,97.80
2018-09-24T02:45:22.180Z,95.90
2018-09-24T02:47:51.145Z,96.90
2018-09-24T02:50:20.178Z,96.40
2018-09-24T02:52:49.246Z,96.70
2018-09-24T02:55:19.262Z,95.70
2018-09-24T02:57:48.210Z,95.20
2018-09-24T03:00:22.711Z,95.40
2018-09-24T03:02:51.809Z,95.80
2018-09-24T03:05:20.956Z,96.00
2018-09-24T03:07:49.905Z,95.60
2018-09-24T03:10:18.934Z,94.50
2018-09-24T03:12:50.529Z,94.50
2018-09-24T03:15:19.710Z,94.90
2018-09-24T03:17:48.750Z,93.80
2018-09-24T03:20:17.739Z,95.80
2018-09-24T03:22:46.701Z,95.10
2018-09-24T03:25:18.400Z,95.20
2018-09-24T03:27:47.585Z,95.00
2018-09-24T03:30:16.910Z,95.40
2018-09-24T03:32:46.018Z,94.60
2018-09-24T03:35:14.990Z,92.90
2018-09-24T03:37:43.936Z,92.50
2018-09-24T03:40:12.905Z,93.00
2018-09-24T03:42:41.832Z,91.50
2018-09-24T03:45:10.832Z,91.50
2018-09-24T03:47:39.768Z,90.00
2018-09-24T03:50:08.725Z,90.70
2018-09-24T03:52:37.695Z,90.10
2018-09-24T03:55:06.756Z,86.60
2018-09-24T03:57:35.770Z,90.20
2018-09-24T04:00:04.705Z,90.40
2018-09-24T04:02:33.743Z,88.50
2018-09-24T04:05:07.890Z,88.60
2018-09-24T04:07:41.950Z,89.50
2018-09-24T04:10:16.188Z,89.50
2018-09-24T04:12:50.418Z,91.00
2018-09-24T04:15:24.694Z,91.30
2018-09-24T04:17:58.922Z,90.90
2018-09-24T04:20:33.211Z,89.40
2018-09-24T04:23:07.315Z,89.50
2018-09-24T04:25:41.426Z,90.60
2018-09-24T04:28:15.551Z,89.70
2018-09-24T04:30:49.851Z,90.30
2018-09-24T04:33:27.757Z,90.30
2018-09-24T04:36:01.949Z,89.80
2018-09-24T04:38:36.202Z,90.10
2018-09-24T04:41:10.349Z,90.20
2018-09-24T04:43:44.545Z,90.20
2018-09-24T04:46:18.782Z,90.20
2018-09-24T04:48:52.996Z,89.10
2018-09-24T04:51:27.131Z,89.50
2018-09-24T04:54:01.370Z,89.50
2018-09-24T04:56:35.452Z,87.90
2018-09-24T04:59:09.462Z,88.50
2018-09-24T05:01:43.845Z,90.40
2018-09-24T05:04:17.926Z,89.90
2018-09-24T05:06:52.230Z,89.50
2018-09-24T05:09:26.505Z,90.40
2018-09-24T05:12:00.717Z,90.00
2018-09-24T05:14:34.829Z,90.70
2018-09-24T05:17:08.938Z,90.90
2018-09-24T05:19:43.123Z,91.20
2018-09-24T05:22:17.130Z,90.50
2018-09-24T05:24:51.289Z,90.40
2018-09-24T05:27:25.435Z,90.30
2018-09-24T05:29:59.519Z,89.60
2018-09-24T05:32:33.621Z,88.90
2018-09-24T05:35:07.717Z,90.50
2018-09-24T05:37:41.943Z,90.60
2018-09-24T05:40:16.092Z,89.00
2018-09-24T05:42:50.144Z,89.10
2018-09-24T05:45:24.244Z,87.50
2018-09-24T05:47:58.567Z,86.00
2018-09-24T05:50:32.727Z,83.60
2018-09-24T05:53:06.817Z,84.80
2018-09-24T05:55:40.953Z,86.00
2018-09-24T05:58:15.130Z,87.40
2018-09-24T06:00:49.227Z,84.80
2018-09-24T06:03:23.373Z,86.50
2018-09-24T06:05:57.485Z,87.60
2018-09-24T06:08:31.521Z,86.50
2018-09-24T06:11:05.592Z,84.80
2018-09-24T06:13:39.699Z,83.10
2018-09-24T06:16:14.053Z,82.80
2018-09-24T06:18:48.063Z,84.60
2018-09-24T06:21:22.210Z,84.40
2018-09-24T06:23:56.390Z,81.70
2018-09-24T06:26:30.502Z,83.80
2018-09-24T06:29:04.630Z,80.70
2018-09-24T06:31:38.902Z,78.50
2018-09-24T06:34:13.181Z,78.90
2018-09-24T06:36:47.440Z,77.70
2018-09-24T06:39:21.633Z,82.20
2018-09-24T06:41:55.769Z,80.10
2018-09-24T06:44:29.946Z,76.60
2018-09-24T06:47:04.012Z,77.60
2018-09-24T06:49:38.086Z,74.50
2018-09-24T06:52:12.350Z,74.50
2018-09-24T06:54:46.411Z,76.80
2018-09-24T06:57:20.530Z,74.10
2018-09-24T06:59:54.663Z,73.70
2018-09-24T07:02:28.910Z,73.90
2018-09-24T07:05:03.080Z,73.90
2018-09-24T07:07:37.334Z,73.00
2018-09-24T07:10:11.510Z,74.50
2018-09-24T07:12:45.814Z,71.80
2018-09-24T07:15:19.966Z,71.50
2018-09-24T07:17:54.018Z,70.50
2018-09-24T07:20:28.211Z,72.60
2018-09-24T07:23:02.408Z,73.40
2018-09-24T07:25:36.710Z,70.30
2018-09-24T07:28:11.005Z,70.90
2018-09-24T07:30:45.173Z,71.00
2018-09-24T07:33:19.544Z,70.20
2018-09-24T07:35:53.624Z,69.60
2018-09-24T07:38:27.823Z,74.40
2018-09-24T07:41:02.849Z,72.10
2018-09-24T07:43:37.312Z,71.00
2018-09-24T07:46:11.497Z,73.00
2018-09-24T07:48:45.628Z,72.40
2018-09-24T07:51:19.824Z,73.90
2018-09-24T07:53:54.009Z,72.10
2018-09-24T07:56:28.034Z,71.80
2018-09-24T07:59:02.068Z,70.10
2018-09-24T08:01:36.095Z,74.20
2018-09-24T08:04:10.209Z,71.50
2018-09-24T08:06:44.465Z,75.10
2018-09-24T08:09:18.711Z,75.00
2018-09-24T08:11:52.895Z,75.50
2018-09-24T08:14:27.106Z,76.00
2018-09-24T08:17:01.088Z,68.80
2018-09-24T08:19:35.251Z,71.50
2018-09-24T08:22:09.510Z,71.90
2018-09-24T08:24:43.691Z,69.40
2018-09-24T08:30:01.107Z,63.00
2018-09-24T08:32:35.318Z,67.00
2018-09-24T08:35:09.545Z,69.20
2018-09-24T08:37:43.928Z,64.00
2018-09-24T08:40:18.035Z,64.40
2018-09-24T08:42:52.091Z,64.40
2018-09-24T08:45:26.145Z,62.60
2018-09-24T08:48:00.224Z,64.40
2018-09-24T08:50:34.369Z,66.60
2018-09-24T08:53:08.590Z,63.30
2018-09-24T08:55:42.875Z,64.00
2018-09-24T08:58:17.030Z,64.00
2018-09-24T09:00:51.230Z,60.20
2018-09-24T09:03:25.422Z,63.00
2018-09-24T09:05:59.530Z,62.20
2018-09-24T09:08:33.691Z,60.70
2018-09-24T09:11:07.921Z,61.50
2018-09-24T09:13:42.229Z,58.90
2018-09-24T09:16:16.498Z,62.40
2018-09-24T09:18:50.691Z,64.80
2018-09-24T09:21:24.891Z,63.50
2018-09-24T09:23:59.124Z,63.20
2018-09-24T09:26:33.170Z,61.30
2018-09-24T09:29:07.469Z,63.70
2018-09-24T09:31:41.485Z,63.60
2018-09-24T09:34:15.630Z,61.30
2018-09-24T09:36:49.883Z,61.70
2018-09-24T09:39:24.009Z,64.90
2018-09-24T09:41:58.070Z,62.90
2018-09-24T09:44:32.332Z,63.30
2018-09-24T09:47:06.511Z,64.30
2018-09-24T09:49:40.656Z,61.50
2018-09-24T09:52:14.865Z,60.40
2018-09-24T09:54:48.872Z,61.20
2018-09-24T09:57:23.035Z,60.20
2018-09-24T09:59:57.129Z,58.10
2018-09-24T10:02:31.254Z,59.20
2018-09-24T10:05:05.234Z,56.40
2018-09-24T10:07:39.454Z,58.40
2018-09-24T10:10:13.423Z,56.30
2018-09-24T10:12:47.518Z,57.40
2018-09-24T10:15:21.756Z,56.40
2018-09-24T10:17:55.925Z,55.10
2018-09-24T10:20:30.025Z,53.70
2018-09-24T10:23:04.235Z,54.50
2018-09-24T10:25:38.382Z,55.70
2018-09-24T10:28:12.612Z,56.00
2018-09-24T10:30:46.662Z,55.40
2018-09-24T10:33:20.946Z,55.00
2018-09-24T10:35:55.133Z,54.70
2018-09-24T10:38:29.264Z,55.70
2018-09-24T10:41:03.414Z,55.10
2018-09-24T10:43:37.610Z,55.20
2018-09-24T10:46:12.007Z,54.40
2018-09-24T10:48:46.022Z,54.90
2018-09-24T10:51:20.170Z,52.70
2018-09-24T10:53:54.400Z,54.20
2018-09-24T10:56:28.645Z,54.10
2018-09-24T10:59:02.925Z,54.50
2018-09-24T11:01:37.160Z,53.70
2018-09-24T11:04:11.370Z,52.10
2018-09-24T11:06:45.477Z,52.00
2018-09-24T11:09:19.720Z,51.50
2018-09-24T11:11:53.943Z,48.50
2018-09-24T11:14:28.062Z,49.30
2018-09-24T11:17:02.489Z,49.20
2018-09-24T11:19:36.378Z,46.60
2018-09-24T11:22:10.669Z,46.50
2018-09-24T11:24:44.773Z,45.30
2018-09-24T11:27:18.976Z,48.20
2018-09-24T11:29:53.210Z,47.40
2018-09-24T11:32:27.260Z,47.20
2018-09-24T11:35:01.518Z,46.90
2018-09-24T11:37:35.934Z,46.70
2018-09-24T11:40:10.071Z,47.70
2018-09-24T11:42:44.186Z,49.30
2018-09-24T11:45:18.254Z,50.90
2018-09-24T11:47:52.611Z,53.30
2018-09-24T11:50:26.835Z,54.30
2018-09-24T11:53:01.087Z,54.50
2018-09-24T11:55:35.051Z,55.40
2018-09-24T11:58:09.270Z,57.30
2018-09-24T12:00:43.387Z,56.00
2018-09-24T12:03:17.530Z,54.30
2018-09-24T12:05:51.780Z,56.20
2018-09-24T12:08:25.970Z,54.60
2018-09-24T12:11:00.273Z,55.80
2018-09-24T12:13:34.434Z,57.20
2018-09-24T12:16:08.702Z,57.20
2018-09-24T12:18:51.878Z,56.10
2018-09-24T12:21:26.164Z,55.40
2018-09-24T12:24:00.412Z,53.90
2018-09-24T12:26:34.460Z,53.60
2018-09-24T12:29:08.599Z,52.00
2018-09-24T12:31:42.774Z,53.30
2018-09-24T12:34:16.850Z,50.90
2018-09-24T12:36:50.889Z,51.60
2018-09-24T12:39:24.962Z,52.20
2018-09-24T12:41:59.046Z,53.30
2018-09-24T12:44:33.235Z,51.10
2018-09-24T12:47:07.376Z,51.60
2018-09-24T12:49:41.571Z,53.30
2018-09-24T12:52:15.960Z,51.00
2018-09-24T12:54:50.111Z,50.10
2018-09-24T12:57:24.290Z,51.60
2018-09-24T12:59:58.438Z,51.00
2018-09-24T13:02:32.499Z,51.10
2018-09-24T13:05:06.602Z,50.00
2018-09-24T13:07:40.866Z,48.10
2018-09-24T13:10:15.053Z,48.10
2018-09-24T13:12:49.198Z,48.60
2018-09-24T13:15:23.330Z,50.10
2018-09-24T13:17:57.402Z,50.10
2018-09-24T13:20:31.651Z,48.60
2018-09-24T13:23:05.770Z,49.50
2018-09-24T13:25:40.030Z,51.30
2018-09-24T13:28:14.183Z,51.20
2018-09-24T13:30:48.423Z,52.30
2018-09-24T13:33:22.610Z,51.80
2018-09-24T13:35:56.710Z,52.20
2018-09-24T13:38:30.816Z,55.70
2018-09-24T13:41:04.813Z,56.30
2018-09-24T13:43:38.959Z,55.20
2018-09-24T13:46:13.162Z,57.20
2018-09-24T13:48:47.320Z,57.60
2018-09-24T13:51:21.485Z,58.30
2018-09-24T13:53:55.623Z,55.50
2018-09-24T13:56:29.806Z,57.40
2018-09-24T13:59:04.014Z,56.20
2018-09-24T14:01:38.157Z,52.20
2018-09-24T14:04:12.250Z,52.20
2018-09-24T14:06:46.570Z,51.50
2018-09-24T14:09:20.761Z,50.00
2018-09-24T14:11:55.010Z,49.30
2018-09-24T14:14:29.167Z,50.20
2018-09-24T14:17:03.263Z,51.30
2018-09-24T14:19:37.522Z,50.90
2018-09-24T14:22:11.716Z,52.10
2018-09-24T14:24:46.010Z,52.90
2018-09-24T14:27:20.099Z,55.60
2018-09-24T14:29:54.335Z,57.00
2018-09-24T14:32:28.510Z,57.50
2018-09-24T14:35:02.668Z,57.10
2018-09-24T14:37:38.750Z,55.90
2018-09-24T14:40:12.931Z,57.10
2018-09-24T14:42:47.192Z,57.60
2018-09-24T14:45:21.450Z,57.50
2018-09-24T14:47:55.550Z,59.20
2018-09-24T14:50:29.814Z,59.00
2018-09-24T14:53:04.065Z,59.50
2018-09-24T14:55:38.310Z,58.90
2018-09-24T14:58:12.887Z,58.30
2018-09-24T15:00:46.945Z,59.70
2018-09-24T15:03:21.267Z,60.50
2018-09-24T15:05:55.541Z,61.60
2018-09-24T15:08:29.733Z,59.50
2018-09-24T15:11:03.869Z,59.60
2018-09-24T15:13:38.075Z,59.80
2018-09-24T15:16:12.151Z,60.80
2018-09-24T15:18:46.347Z,61.10
2018-09-24T15:21:20.499Z,62.30
2018-09-24T15:23:59.562Z,62.30
2018-09-24T15:26:33.670Z,64.60
2018-09-24T15:29:08.017Z,65.70
2018-09-24T15:31:42.206Z,62.90
2018-09-24T15:34:16.402Z,63.40
2018-09-24T15:36:50.565Z,61.10
2018-09-24T15:39:24.629Z,61.40
2018-09-24T15:41:58.785Z,62.00
2018-09-24T15:44:33.052Z,62.00
2018-09-24T15:47:07.352Z,63.00
2018-09-24T15:49:41.529Z,60.90
2018-09-24T15:52:15.624Z,63.00
2018-09-24T15:54:49.786Z,65.50
2018-09-24T15:57:23.896Z,63.70
2018-09-24T15:59:58.086Z,65.50
2018-09-24T16:02:32.304Z,64.00
2018-09-24T16:05:06.464Z,67.00
2018-09-24T16:07:40.681Z,67.60
2018-09-24T16:10:14.994Z,67.20
2018-09-24T16:12:49.126Z,66.80
2018-09-24T16:15:23.230Z,68.20
2018-09-24T16:17:57.469Z,68.00
2018-09-24T16:20:31.583Z,68.10
2018-09-24T16:23:05.712Z,71.80
2018-09-24T16:25:39.706Z,71.80
2018-09-24T16:28:20.810Z,72.20
2018-09-24T16:30:54.987Z,74.00
2018-09-24T16:33:29.281Z,74.00
2018-09-24T16:36:03.449Z,74.30
2018-09-24T16:38:37.699Z,75.80
2018-09-24T16:41:12.024Z,73.20
2018-09-24T16:43:46.185Z,70.00
2018-09-24T16:46:20.394Z,72.70
2018-09-24T16:48:54.507Z,71.10
2018-09-24T16:51:28.680Z,72.00
2018-09-24T16:54:02.850Z,73.90
2018-09-24T16:56:36.836Z,74.70
2018-09-24T16:59:11.200Z,73.50
2018-09-24T17:01:45.306Z,74.10
2018-09-24T17:04:19.548Z,73.50
2018-09-24T17:06:53.697Z,73.30
2018-09-24T17:09:27.845Z,72.80
2018-09-24T17:12:02.030Z,75.20
2018-09-24T17:14:36.291Z,76.70
2018-09-24T17:17:10.441Z,78.00
2018-09-24T17:19:44.588Z,79.70
2018-09-24T17:22:18.825Z,82.40
2018-09-24T17:24:53.028Z,76.00
2018-09-24T17:27:27.190Z,77.40
2018-09-24T17:30:01.388Z,74.30
2018-09-24T17:32:35.490Z,72.40
2018-09-24T17:35:09.658Z,71.40
2018-09-24T17:37:43.713Z,71.30
2018-09-24T17:40:17.972Z,68.40
2018-09-24T17:42:52.086Z,67.60
2018-09-24T17:45:26.471Z,68.10
2018-09-24T17:48:00.694Z,67.20
2018-09-24T17:50:34.967Z,64.70
2018-09-24T17:53:09.055Z,64.10
2018-09-24T17:55:43.318Z,65.00
2018-09-24T17:58:17.330Z,65.10
2018-09-24T18:00:51.432Z,64.30
2018-09-24T18:03:25.586Z,62.70
2018-09-24T18:05:59.834Z,64.30
2018-09-24T18:08:34.170Z,64.40
2018-09-24T18:11:08.743Z,62.80
2018-09-24T18:13:43.182Z,62.40
2018-09-24T18:16:17.390Z,60.00
2018-09-24T18:18:51.611Z,59.00
2018-09-24T18:21:25.763Z,58.10
2018-09-24T18:24:00.030Z,58.60
2018-09-24T18:26:34.037Z,58.80
2018-09-24T18:29:08.192Z,58.70
2018-09-24T18:31:42.411Z,57.90
2018-09-24T18:34:16.565Z,57.60
2018-09-24T18:36:50.934Z,58.70
2018-09-24T18:39:25.254Z,56.70
2018-09-24T18:41:59.516Z,56.90
2018-09-24T18:44:33.775Z,57.00
2018-09-24T18:47:08.073Z,58.00
2018-09-24T18:49:42.294Z,57.30
2018-09-24T18:52:16.550Z,57.20
2018-09-24T18:54:50.878Z,57.40
2018-09-24T18:57:24.912Z,58.60
2018-09-24T18:59:59.120Z,58.10
2018-09-24T19:02:33.066Z,58.20
2018-09-24T19:05:07.285Z,58.60
2018-09-24T19:07:41.406Z,58.80
2018-09-24T19:10:15.577Z,58.90
2018-09-24T19:12:49.693Z,59.80
2018-09-24T19:15:33.696Z,61.40
2018-09-24T19:18:07.992Z,65.30
2018-09-24T19:20:42.091Z,66.50
2018-09-24T19:23:16.351Z,68.50
2018-09-24T19:25:50.469Z,66.90
2018-09-24T19:28:24.719Z,69.50
2018-09-24T19:30:58.780Z,68.40
2018-09-24T19:33:32.977Z,67.70
2018-09-24T19:36:07.198Z,69.20
2018-09-24T19:38:41.331Z,70.30
2018-09-24T19:41:15.424Z,67.30
2018-09-24T19:43:49.550Z,68.30
2018-09-24T19:46:23.578Z,67.50
2018-09-24T19:48:57.893Z,70.90
2018-09-24T19:51:31.887Z,67.70
2018-09-24T19:54:06.042Z,67.50
2018-09-24T19:56:40.238Z,70.20
2018-09-24T19:59:14.332Z,72.10
2018-09-24T20:01:48.615Z,72.60
2018-09-24T20:04:22.813Z,73.80
2018-09-24T20:06:56.823Z,73.90
2018-09-24T20:09:30.983Z,76.50
2018-09-24T20:12:05.099Z,77.80
2018-09-24T20:14:39.368Z,77.80
2018-09-24T20:17:13.502Z,77.10
2018-09-24T20:19:47.678Z,79.30
2018-09-24T20:22:21.760Z,71.90
2018-09-24T20:24:55.906Z,72.50
2018-09-24T20:27:30.027Z,72.60
2018-09-24T20:30:04.127Z,70.80
2018-09-24T20:32:38.272Z,69.50
2018-09-24T20:35:12.542Z,68.10
2018-09-24T20:37:46.654Z,68.40
2018-09-24T20:40:20.873Z,68.20
2018-09-24T20:42:54.829Z,68.90
2018-09-24T20:45:28.985Z,70.90
2018-09-24T20:48:02.989Z,73.10
2018-09-24T20:50:37.016Z,71.80
2018-09-24T20:53:11.329Z,68.30
2018-09-24T20:55:45.343Z,68.50
2018-09-24T20:58:19.370Z,70.40
2018-09-24T21:00:53.387Z,71.00
2018-09-24T21:03:27.517Z,71.90
2018-09-24T21:06:01.653Z,72.30
2018-09-24T21:08:36.208Z,73.10
2018-09-24T21:11:10.262Z,72.50
2018-09-24T21:13:44.297Z,71.40
2018-09-24T21:16:18.325Z,73.90
2018-09-24T21:18:52.511Z,76.30
2018-09-24T21:21:26.649Z,71.50
2018-09-24T21:24:00.774Z,70.40
2018-09-24T21:26:34.818Z,69.90
2018-09-24T21:29:09.030Z,67.70
2018-09-24T21:31:43.253Z,67.30
2018-09-24T21:34:17.430Z,66.70
2018-09-24T21:36:51.590Z,67.90
2018-09-24T21:39:25.805Z,68.20
2018-09-24T21:41:59.958Z,66.80
2018-09-24T21:44:34.305Z,67.60
2018-09-24T21:47:08.451Z,66.70
2018-09-24T21:49:42.431Z,67.80
2018-09-24T21:52:16.413Z,67.90
2018-09-24T21:54:50.474Z,68.40
2018-09-24T21:57:24.643Z,69.40
2018-09-24T21:59:58.795Z,68.50
2018-09-24T22:02:32.905Z,68.10
2018-09-24T22:05:07.185Z,67.70
2018-09-24T22:07:41.405Z,67.10
2018-09-24T22:10:15.390Z,66.90
2018-09-24T22:12:49.431Z,68.70
2018-09-24T22:15:23.622Z,68.10
2018-09-24T22:17:57.890Z,68.20
2018-09-24T22:20:31.918Z,68.10
2018-09-24T22:23:06.091Z,70.50
2018-09-24T22:25:40.155Z,72.30
2018-09-24T22:28:14.329Z,72.10
2018-09-24T22:30:48.389Z,74.80
2018-09-24T22:33:22.656Z,73.10
2018-09-24T22:35:56.835Z,72.20
2018-09-24T22:38:30.989Z,73.30
2018-09-24T22:41:05.255Z,75.60
2018-09-24T22:43:39.410Z,77.00
2018-09-24T22:46:13.662Z,77.40
2018-09-24T22:48:47.910Z,79.60
2018-09-24T22:51:22.113Z,76.80
2018-09-24T22:53:56.257Z,75.60
2018-09-24T22:56:30.470Z,76.70
2018-09-24T22:59:04.668Z,73.80
2018-09-24T23:01:38.850Z,76.90
2018-09-24T23:04:13.171Z,76.50
2018-09-24T23:06:47.249Z,75.80
2018-09-24T23:09:21.365Z,76.40
2018-09-24T23:11:55.650Z,75.40
2018-09-24T23:14:29.746Z,75.80
2018-09-24T23:17:03.867Z,76.50
2018-09-24T23:19:37.906Z,77.60
2018-09-24T23:22:12.121Z,78.90
2018-09-24T23:24:46.186Z,78.70
2018-09-24T23:27:20.402Z,79.90
2018-09-24T23:29:54.610Z,80.20
2018-09-24T23:32:28.875Z,81.20
2018-09-24T23:35:03.020Z,80.90
2018-09-24T23:37:37.265Z,82.10
2018-09-24T23:40:11.630Z,81.80
2018-09-24T23:42:45.772Z,83.80
2018-09-24T23:45:19.956Z,81.10
2018-09-24T23:47:53.977Z,79.70
2018-09-24T23:50:28.038Z,79.20
2018-09-24T23:53:02.056Z,78.50
2018-09-24T23:55:36.204Z,78.70
2018-09-24T23:58:10.602Z,77.30
